createdAt,value
2018-02-08T00:00:05.137Z,21.90
2018-02-08T00:02:32.658Z,21.80
2018-02-08T00:05:00.188Z,21.80
2018-02-08T00:07:27.738Z,21.80
2018-02-08T00:09:55.464Z,21.80
2018-02-08T00:12:23.123Z,21.90
2018-02-08T00:14:50.625Z,21.80
2018-02-08T00:17:18.278Z,21.80
2018-02-08T00:19:45.860Z,21.80
2018-02-08T00:22:25.173Z,21.80
2018-02-08T00:24:52.742Z,21.80
2018-02-08T00:27:20.354Z,21.80
2018-02-08T00:29:47.866Z,21.80
2018-02-08T00:32:15.409Z,21.80
2018-02-08T00:34:42.983Z,21.80
2018-02-08T00:37:10.634Z,21.80
2018-02-08T00:39:38.254Z,21.80
2018-02-08T00:42:05.789Z,21.80
2018-02-08T00:44:34.089Z,21.80
2018-02-08T00:47:01.629Z,21.80
2018-02-08T00:49:29.922Z,21.80
2018-02-08T00:51:57.466Z,21.80
2018-02-08T00:54:25.135Z,21.80
2018-02-08T00:56:52.674Z,21.80
2018-02-08T00:59:20.966Z,21.80
2018-02-08T01:01:48.514Z,21.80
2018-02-08T01:04:16.816Z,21.80
2018-02-08T01:06:44.365Z,21.80
2018-02-08T01:09:11.982Z,21.80
2018-02-08T01:11:40.294Z,21.70
2018-02-08T01:14:07.827Z,21.80
2018-02-08T01:16:37.024Z,21.70
2018-02-08T01:19:04.611Z,21.70
2018-02-08T01:21:32.896Z,21.70
2018-02-08T01:24:00.435Z,21.70
2018-02-08T01:26:28.736Z,21.70
2018-02-08T01:28:56.355Z,21.70
2018-02-08T01:31:23.865Z,21.70
2018-02-08T01:33:51.385Z,21.70
2018-02-08T01:36:19.736Z,21.70
2018-02-08T01:38:47.312Z,21.70
2018-02-08T01:41:15.914Z,21.70
2018-02-08T01:43:44.287Z,21.70
2018-02-08T01:46:12.764Z,21.70
2018-02-08T01:48:40.462Z,21.70
2018-02-08T01:51:08.058Z,21.70
2018-02-08T01:53:37.138Z,21.70
2018-02-08T01:56:04.718Z,21.70
2018-02-08T01:58:32.632Z,21.70
2018-02-08T02:01:00.989Z,21.70
2018-02-08T02:03:29.306Z,21.70
2018-02-08T02:05:56.880Z,21.70
2018-02-08T02:08:24.414Z,21.70
2018-02-08T02:10:51.994Z,21.70
2018-02-08T02:13:19.697Z,21.70
2018-02-08T02:15:47.406Z,21.70
2018-02-08T02:18:15.032Z,21.70
2018-02-08T02:20:42.623Z,21.70
2018-02-08T02:23:10.258Z,21.70
2018-02-08T02:25:38.607Z,21.70
2018-02-08T02:28:06.190Z,21.70
2018-02-08T02:30:33.721Z,21.70
2018-02-08T02:33:01.288Z,21.70
2018-02-08T02:35:28.844Z,21.70
2018-02-08T02:37:56.564Z,21.70
2018-02-08T02:40:24.109Z,21.70
2018-02-08T02:42:52.439Z,21.70
2018-02-08T02:45:20.024Z,21.70
2018-02-08T02:47:47.572Z,21.70
2018-02-08T02:50:15.236Z,21.70
2018-02-08T02:52:42.810Z,21.70
2018-02-08T02:55:10.750Z,21.70
2018-02-08T02:57:38.291Z,21.70
2018-02-08T03:00:05.902Z,21.70
2018-02-08T03:02:34.252Z,21.70
2018-02-08T03:05:01.768Z,21.70
2018-02-08T03:07:29.350Z,21.70
2018-02-08T03:09:56.948Z,21.70
2018-02-08T03:12:24.554Z,21.70
2018-02-08T03:14:52.126Z,21.70
2018-02-08T03:17:19.694Z,21.70
2018-02-08T03:19:47.275Z,21.70
2018-02-08T03:22:14.842Z,21.70
2018-02-08T03:24:43.951Z,21.70
2018-02-08T03:27:11.570Z,21.70
2018-02-08T03:29:39.126Z,21.70
2018-02-08T03:32:06.824Z,21.70
2018-02-08T03:34:35.122Z,21.70
2018-02-08T03:37:03.490Z,21.70
2018-02-08T03:39:32.016Z,21.70
2018-02-08T03:41:59.570Z,21.70
2018-02-08T03:44:27.173Z,21.70
2018-02-08T03:46:54.817Z,21.70
2018-02-08T03:49:22.451Z,21.70
2018-02-08T03:51:50.119Z,21.70
2018-02-08T03:54:17.878Z,21.70
2018-02-08T03:56:45.454Z,21.70
2018-02-08T03:59:13.096Z,21.70
2018-02-08T04:01:40.658Z,21.70
2018-02-08T04:04:08.302Z,21.70
2018-02-08T04:06:35.985Z,21.70
2018-02-08T04:09:03.544Z,21.70
2018-02-08T04:11:31.091Z,21.70
2018-02-08T04:13:58.657Z,21.70
2018-02-08T04:16:26.196Z,21.70
2018-02-08T04:18:53.899Z,21.70
2018-02-08T04:21:21.523Z,21.70
2018-02-08T04:23:49.105Z,21.70
2018-02-08T04:26:16.766Z,21.70
2018-02-08T04:28:44.457Z,21.70
2018-02-08T04:31:12.088Z,21.70
2018-02-08T04:33:39.640Z,21.70
2018-02-08T04:36:07.313Z,21.70
2018-02-08T04:38:46.953Z,21.70
2018-02-08T04:41:26.487Z,21.70
2018-02-08T04:44:17.911Z,21.70
2018-02-08T04:47:07.179Z,21.70
2018-02-08T04:49:34.839Z,21.70
2018-02-08T04:52:02.417Z,21.70
2018-02-08T04:54:30.059Z,21.70
2018-02-08T04:56:57.671Z,21.70
2018-02-08T04:59:25.283Z,21.70
2018-02-08T05:01:52.853Z,21.70
2018-02-08T05:04:20.418Z,21.70
2018-02-08T05:06:47.991Z,21.70
2018-02-08T05:09:15.550Z,21.70
2018-02-08T05:11:44.126Z,21.70
2018-02-08T05:14:11.712Z,21.70
2018-02-08T05:16:39.306Z,21.70
2018-02-08T05:19:06.893Z,21.70
2018-02-08T05:21:34.469Z,21.70
2018-02-08T05:24:02.022Z,21.70
2018-02-08T05:26:29.608Z,21.70
2018-02-08T05:28:57.221Z,21.70
2018-02-08T05:31:24.885Z,21.70
2018-02-08T05:33:53.435Z,21.70
2018-02-08T05:36:21.785Z,21.70
2018-02-08T05:38:49.479Z,21.70
2018-02-08T05:41:17.801Z,21.70
2018-02-08T05:43:45.333Z,21.70
2018-02-08T05:46:12.907Z,21.70
2018-02-08T05:48:40.477Z,21.70
2018-02-08T05:51:08.109Z,21.70
2018-02-08T05:53:35.709Z,21.70
2018-02-08T05:56:03.274Z,21.70
2018-02-08T05:58:30.907Z,21.70
2018-02-08T06:00:59.250Z,21.70
2018-02-08T06:03:27.661Z,21.70
2018-02-08T06:05:55.241Z,21.70
2018-02-08T06:08:22.827Z,21.70
2018-02-08T06:10:50.417Z,21.70
2018-02-08T06:13:18.717Z,21.70
2018-02-08T06:15:46.305Z,21.70
2018-02-08T06:18:13.864Z,21.70
2018-02-08T06:20:41.449Z,21.70
2018-02-08T06:23:09.019Z,21.70
2018-02-08T06:25:36.747Z,21.70
2018-02-08T06:28:04.335Z,21.70
2018-02-08T06:30:31.917Z,21.70
2018-02-08T06:33:00.314Z,21.70
2018-02-08T06:35:27.889Z,21.70
2018-02-08T06:37:55.493Z,21.70
2018-02-08T06:40:23.041Z,21.70
2018-02-08T06:42:50.630Z,21.70
2018-02-08T06:45:19.205Z,21.70
2018-02-08T06:47:47.571Z,21.70
2018-02-08T06:50:15.175Z,21.70
2018-02-08T06:52:42.737Z,21.70
2018-02-08T06:55:10.309Z,21.70
2018-02-08T06:57:37.969Z,21.70
2018-02-08T07:00:05.511Z,21.80
2018-02-08T07:02:33.183Z,21.90
2018-02-08T07:05:00.861Z,22.10
2018-02-08T07:07:28.507Z,22.10
2018-02-08T07:09:56.281Z,22.10
2018-02-08T07:12:23.853Z,22.10
2018-02-08T07:14:51.425Z,22.10
2018-02-08T07:17:18.998Z,22.10
2018-02-08T07:19:46.563Z,22.00
2018-02-08T07:22:14.159Z,22.00
2018-02-08T07:24:41.738Z,22.00
2018-02-08T07:27:09.303Z,22.00
2018-02-08T07:29:36.864Z,22.00
2018-02-08T07:32:04.485Z,21.90
2018-02-08T07:34:32.976Z,21.90
2018-02-08T07:37:00.531Z,21.90
2018-02-08T07:39:28.269Z,21.90
2018-02-08T07:41:55.813Z,21.90
2018-02-08T07:44:23.593Z,21.80
2018-02-08T07:46:51.130Z,21.80
2018-02-08T07:49:18.712Z,21.80
2018-02-08T07:51:46.285Z,21.80
2018-02-08T07:54:14.619Z,21.80
2018-02-08T07:56:42.253Z,21.70
2018-02-08T07:59:09.858Z,21.80
2018-02-08T08:01:37.423Z,21.80
2018-02-08T08:04:04.988Z,21.70
2018-02-08T08:06:32.566Z,21.70
2018-02-08T08:09:00.970Z,21.70
2018-02-08T08:11:28.560Z,21.70
2018-02-08T08:13:56.178Z,21.70
2018-02-08T08:16:23.803Z,21.70
2018-02-08T08:18:51.548Z,21.70
2018-02-08T08:21:19.124Z,21.70
2018-02-08T08:23:46.692Z,21.70
2018-02-08T08:26:14.254Z,21.70
2018-02-08T08:28:41.858Z,21.70
2018-02-08T08:31:09.518Z,21.70
2018-02-08T08:33:37.318Z,21.70
2018-02-08T08:36:05.002Z,21.70
2018-02-08T08:38:32.542Z,21.70
2018-02-08T08:41:00.916Z,21.60
2018-02-08T08:43:28.520Z,21.70
2018-02-08T08:45:56.876Z,21.70
2018-02-08T08:48:24.430Z,21.60
2018-02-08T08:50:52.032Z,21.70
2018-02-08T08:53:19.616Z,21.70
2018-02-08T08:55:47.193Z,21.70
2018-02-08T08:58:14.723Z,21.60
2018-02-08T09:00:42.313Z,21.60
2018-02-08T09:03:09.938Z,21.70
2018-02-08T09:05:37.512Z,21.70
2018-02-08T09:08:05.068Z,21.70
2018-02-08T09:10:32.708Z,21.70
2018-02-08T09:13:01.128Z,21.70
2018-02-08T09:15:28.700Z,21.60
2018-02-08T09:17:56.292Z,21.70
2018-02-08T09:20:24.654Z,21.70
2018-02-08T09:22:52.186Z,21.60
2018-02-08T09:25:19.794Z,21.70
2018-02-08T09:27:48.160Z,21.70
2018-02-08T09:30:16.478Z,21.70
2018-02-08T09:32:44.234Z,21.70
2018-02-08T09:35:11.811Z,21.70
2018-02-08T09:37:39.476Z,21.70
2018-02-08T09:40:07.060Z,21.70
2018-02-08T09:42:34.678Z,21.70
2018-02-08T09:45:02.244Z,21.70
2018-02-08T09:47:30.065Z,21.70
2018-02-08T09:49:57.628Z,21.60
2018-02-08T09:52:25.970Z,21.60
2018-02-08T09:54:53.627Z,21.70
2018-02-08T09:57:21.916Z,21.70
2018-02-08T09:59:49.496Z,21.60
2018-02-08T10:02:17.074Z,21.60
2018-02-08T10:04:45.414Z,21.70
2018-02-08T10:07:12.990Z,21.70
2018-02-08T10:09:40.564Z,21.80
2018-02-08T10:12:08.938Z,21.90
2018-02-08T10:14:36.502Z,21.90
2018-02-08T10:17:04.873Z,21.90
2018-02-08T10:19:32.646Z,21.90
2018-02-08T10:22:00.994Z,21.90
2018-02-08T10:24:28.614Z,21.90
2018-02-08T10:26:56.216Z,21.90
2018-02-08T10:29:23.784Z,21.90
2018-02-08T10:31:52.092Z,21.90
2018-02-08T10:34:20.436Z,21.90
2018-02-08T10:36:48.034Z,21.90
2018-02-08T10:39:15.642Z,21.90
2018-02-08T10:41:43.314Z,21.90
2018-02-08T10:44:10.906Z,21.90
2018-02-08T10:46:39.224Z,21.90
2018-02-08T10:49:06.820Z,21.90
2018-02-08T10:51:34.419Z,21.90
2018-02-08T10:54:02.004Z,21.90
2018-02-08T10:56:29.718Z,21.90
2018-02-08T10:58:57.652Z,21.90
2018-02-08T11:01:25.220Z,21.90
2018-02-08T11:03:52.800Z,21.90
2018-02-08T11:06:20.377Z,21.90
2018-02-08T11:08:48.744Z,21.90
2018-02-08T11:11:16.340Z,21.80
2018-02-08T11:13:43.909Z,21.80
2018-02-08T11:16:11.519Z,21.90
2018-02-08T11:18:39.271Z,21.90
2018-02-08T11:21:06.857Z,21.90
2018-02-08T11:23:35.266Z,21.80
2018-02-08T11:26:02.829Z,21.80
2018-02-08T11:28:30.426Z,21.80
2018-02-08T11:30:58.022Z,21.80
2018-02-08T11:33:26.344Z,21.80
2018-02-08T11:35:54.096Z,21.80
2018-02-08T11:38:22.402Z,21.80
2018-02-08T11:40:49.967Z,21.80
2018-02-08T11:43:17.553Z,21.80
2018-02-08T11:45:45.869Z,21.80
2018-02-08T11:48:13.438Z,21.80
2018-02-08T11:50:41.014Z,21.80
2018-02-08T11:53:08.580Z,21.80
2018-02-08T11:55:36.164Z,21.80
2018-02-08T11:58:04.527Z,21.80
2018-02-08T12:00:32.219Z,21.80
2018-02-08T12:03:00.562Z,21.80
2018-02-08T12:05:28.180Z,21.80
2018-02-08T12:07:56.045Z,21.80
2018-02-08T12:10:23.641Z,21.80
2018-02-08T12:12:51.201Z,21.80
2018-02-08T12:15:19.544Z,21.80
2018-02-08T12:17:47.141Z,21.80
2018-02-08T12:20:14.837Z,21.80
2018-02-08T12:22:42.401Z,21.80
2018-02-08T12:25:10.761Z,21.80
2018-02-08T12:27:38.315Z,21.80
2018-02-08T12:30:05.899Z,21.80
2018-02-08T12:32:33.485Z,21.70
2018-02-08T12:35:01.087Z,21.80
2018-02-08T12:37:28.646Z,21.70
2018-02-08T12:39:56.206Z,21.70
2018-02-08T12:42:23.788Z,21.70
2018-02-08T12:44:52.117Z,21.70
2018-02-08T12:47:19.701Z,21.70
2018-02-08T12:49:47.421Z,21.70
2018-02-08T12:52:14.989Z,21.70
2018-02-08T12:54:42.584Z,21.70
2018-02-08T12:57:10.250Z,21.70
2018-02-08T12:59:37.877Z,21.70
2018-02-08T13:02:05.434Z,21.70
2018-02-08T13:04:33.051Z,21.70
2018-02-08T13:07:01.416Z,21.70
2018-02-08T13:09:28.965Z,21.70
2018-02-08T13:11:56.537Z,21.70
2018-02-08T13:14:24.137Z,21.70
2018-02-08T13:16:51.673Z,21.70
2018-02-08T13:19:19.994Z,21.70
2018-02-08T13:21:47.643Z,21.70
2018-02-08T13:24:15.181Z,21.70
2018-02-08T13:26:42.859Z,21.70
2018-02-08T13:29:10.525Z,21.70
2018-02-08T13:31:41.211Z,21.70
2018-02-08T13:34:08.773Z,21.70
2018-02-08T13:36:36.375Z,21.70
2018-02-08T13:39:03.941Z,21.70
2018-02-08T13:41:31.645Z,21.70
2018-02-08T13:43:59.263Z,21.70
2018-02-08T13:46:26.835Z,21.70
2018-02-08T13:48:59.910Z,21.70
2018-02-08T13:51:35.961Z,21.70
2018-02-08T13:54:11.216Z,21.70
2018-02-08T13:56:44.539Z,21.70
2018-02-08T13:59:19.250Z,21.70
2018-02-08T14:01:49.355Z,21.70
2018-02-08T14:04:16.890Z,21.70
2018-02-08T14:06:44.575Z,21.70
2018-02-08T14:09:12.213Z,21.70
2018-02-08T14:11:39.791Z,21.70
2018-02-08T14:14:07.395Z,21.70
2018-02-08T14:16:35.891Z,21.70
2018-02-08T14:19:03.481Z,21.70
2018-02-08T14:21:31.038Z,21.70
2018-02-08T14:23:58.713Z,21.70
2018-02-08T14:26:26.292Z,21.70
2018-02-08T14:28:53.869Z,21.70
2018-02-08T14:31:21.611Z,21.70
2018-02-08T14:33:49.168Z,21.70
2018-02-08T14:36:16.814Z,21.70
2018-02-08T14:38:44.385Z,21.70
2018-02-08T14:41:11.964Z,21.70
2018-02-08T14:43:39.597Z,21.70
2018-02-08T14:46:07.264Z,21.70
2018-02-08T14:48:34.826Z,21.70
2018-02-08T14:51:02.392Z,21.70
2018-02-08T14:53:29.956Z,21.70
2018-02-08T14:55:57.561Z,21.70
2018-02-08T14:58:25.961Z,21.70
2018-02-08T15:00:54.270Z,21.60
2018-02-08T15:03:21.865Z,21.60
2018-02-08T15:05:49.450Z,21.70
2018-02-08T15:08:17.772Z,21.70
2018-02-08T15:10:45.368Z,21.60
2018-02-08T15:13:12.930Z,21.70
2018-02-08T15:15:40.518Z,21.70
2018-02-08T15:18:08.066Z,21.70
2018-02-08T15:20:36.418Z,21.60
2018-02-08T15:23:03.952Z,21.70
2018-02-08T15:25:31.534Z,21.60
2018-02-08T15:27:59.135Z,21.70
2018-02-08T15:30:26.630Z,21.70
2018-02-08T15:32:54.274Z,21.70
2018-02-08T15:35:21.884Z,21.70
2018-02-08T15:37:49.456Z,21.70
2018-02-08T15:40:17.797Z,21.70
2018-02-08T15:42:45.374Z,21.60
2018-02-08T15:45:12.946Z,21.60
2018-02-08T15:47:41.331Z,21.60
2018-02-08T15:50:09.665Z,21.60
2018-02-08T15:52:37.252Z,21.60
2018-02-08T15:55:04.974Z,21.60
2018-02-08T15:57:32.614Z,21.60
2018-02-08T16:00:00.168Z,21.60
2018-02-08T16:02:27.846Z,21.60
2018-02-08T16:04:57.228Z,21.60
2018-02-08T16:07:24.810Z,21.70
2018-02-08T16:09:52.362Z,21.70
2018-02-08T16:12:20.124Z,21.70
2018-02-08T16:14:47.671Z,21.70
2018-02-08T16:17:15.284Z,21.70
2018-02-08T16:19:43.048Z,21.80
2018-02-08T16:22:10.626Z,21.90
2018-02-08T16:24:38.182Z,22.00
2018-02-08T16:27:05.770Z,22.10
2018-02-08T16:29:34.169Z,22.20
2018-02-08T16:32:01.718Z,22.20
2018-02-08T16:34:29.342Z,22.10
2018-02-08T16:36:58.087Z,22.10
2018-02-08T16:39:26.894Z,22.10
2018-02-08T16:41:54.485Z,22.20
2018-02-08T16:44:22.063Z,22.40
2018-02-08T16:46:50.422Z,22.40
2018-02-08T16:49:17.992Z,22.40
2018-02-08T16:51:46.368Z,22.30
2018-02-08T16:54:14.695Z,22.40
2018-02-08T16:56:42.318Z,22.30
2018-02-08T16:59:10.693Z,22.40
2018-02-08T17:01:39.067Z,22.60
2018-02-08T17:04:07.399Z,22.60
2018-02-08T17:06:34.955Z,22.60
2018-02-08T17:09:02.565Z,22.70
2018-02-08T17:11:30.968Z,23.00
2018-02-08T17:13:58.566Z,23.00
2018-02-08T17:16:26.288Z,23.00
2018-02-08T17:18:53.885Z,22.90
2018-02-08T17:21:21.446Z,22.90
2018-02-08T17:23:49.501Z,22.90
2018-02-08T17:26:17.247Z,22.80
2018-02-08T17:28:44.872Z,22.80
2018-02-08T17:31:12.426Z,22.70
2018-02-08T17:33:40.013Z,22.70
2018-02-08T17:36:08.374Z,22.60
2018-02-08T17:38:36.706Z,22.60
2018-02-08T17:41:04.285Z,22.60
2018-02-08T17:43:31.860Z,22.70
2018-02-08T17:45:59.420Z,22.70
2018-02-08T17:48:27.145Z,22.60
2018-02-08T17:50:54.830Z,22.60
2018-02-08T17:53:22.453Z,22.60
2018-02-08T17:55:50.938Z,22.60
2018-02-08T17:58:18.514Z,22.60
2018-02-08T18:00:46.383Z,22.60
2018-02-08T18:03:13.977Z,22.60
2018-02-08T18:05:41.690Z,22.60
2018-02-08T18:08:09.342Z,22.70
2018-02-08T18:10:37.013Z,22.70
2018-02-08T18:13:04.831Z,22.70
2018-02-08T18:15:32.427Z,22.70
2018-02-08T18:18:00.008Z,22.70
2018-02-08T18:20:27.549Z,22.80
2018-02-08T18:22:55.991Z,22.80
2018-02-08T18:25:25.120Z,22.80
2018-02-08T18:27:52.675Z,22.80
2018-02-08T18:30:20.525Z,22.80
2018-02-08T18:32:48.861Z,22.80
2018-02-08T18:35:16.505Z,22.80
2018-02-08T18:37:44.163Z,22.80
2018-02-08T18:40:11.747Z,22.80
2018-02-08T18:42:39.382Z,22.80
2018-02-08T18:45:07.129Z,22.80
2018-02-08T18:47:34.779Z,22.80
2018-02-08T18:50:03.151Z,22.80
2018-02-08T18:52:31.550Z,22.80
2018-02-08T18:55:00.565Z,22.80
2018-02-08T18:57:28.205Z,22.70
2018-02-08T18:59:55.804Z,22.80
2018-02-08T19:02:23.409Z,22.80
2018-02-08T19:04:51.930Z,22.70
2018-02-08T19:07:19.701Z,22.80
2018-02-08T19:09:47.279Z,22.70
2018-02-08T19:12:14.877Z,22.70
2018-02-08T19:14:43.205Z,22.60
2018-02-08T19:17:11.869Z,22.60
2018-02-08T19:19:39.589Z,22.60
2018-02-08T19:22:07.201Z,22.60
2018-02-08T19:24:34.983Z,22.60
2018-02-08T19:27:03.391Z,22.50
2018-02-08T19:29:31.065Z,22.50
2018-02-08T19:31:59.501Z,22.50
2018-02-08T19:34:27.057Z,22.50
2018-02-08T19:36:55.355Z,22.50
2018-02-08T19:39:23.783Z,22.50
2018-02-08T19:41:51.435Z,22.40
2018-02-08T19:44:19.867Z,22.50
2018-02-08T19:46:48.239Z,22.40
2018-02-08T19:49:15.876Z,22.50
2018-02-08T19:51:43.748Z,22.50
2018-02-08T19:54:11.333Z,22.50
2018-02-08T19:56:39.018Z,22.50
2018-02-08T19:59:06.593Z,22.40
2018-02-08T20:01:34.959Z,22.40
2018-02-08T20:04:02.629Z,22.40
2018-02-08T20:06:31.295Z,22.40
2018-02-08T20:08:59.871Z,22.30
2018-02-08T20:11:27.486Z,22.30
2018-02-08T20:13:55.137Z,22.30
2018-02-08T20:16:23.472Z,22.40
2018-02-08T20:18:51.085Z,22.30
2018-02-08T20:21:18.674Z,22.30
2018-02-08T20:23:46.564Z,22.30
2018-02-08T20:26:14.921Z,22.40
2018-02-08T20:28:42.629Z,22.40
2018-02-08T20:31:13.453Z,22.30
2018-02-08T20:33:41.087Z,22.30
2018-02-08T20:36:08.751Z,22.30
2018-02-08T20:38:36.425Z,22.30
2018-02-08T20:41:04.050Z,22.30
2018-02-08T20:43:31.661Z,22.30
2018-02-08T20:45:59.248Z,22.20
2018-02-08T20:48:26.881Z,22.20
2018-02-08T20:50:54.515Z,22.20
2018-02-08T20:53:22.146Z,22.30
2018-02-08T20:55:49.744Z,22.30
2018-02-08T20:58:17.380Z,22.20
2018-02-08T21:00:44.944Z,22.20
2018-02-08T21:03:12.599Z,22.20
2018-02-08T21:05:40.365Z,22.20
2018-02-08T21:08:07.973Z,22.20
2018-02-08T21:10:36.328Z,22.20
2018-02-08T21:13:04.060Z,22.20
2018-02-08T21:15:31.670Z,22.20
2018-02-08T21:17:59.272Z,22.20
2018-02-08T21:20:26.878Z,22.20
2018-02-08T21:22:54.442Z,22.20
2018-02-08T21:25:23.569Z,22.20
2018-02-08T21:27:52.076Z,22.30
2018-02-08T21:30:19.816Z,22.30
2018-02-08T21:32:47.648Z,22.30
2018-02-08T21:35:15.214Z,22.30
2018-02-08T21:37:42.840Z,22.30
2018-02-08T21:40:10.546Z,22.30
2018-02-08T21:42:38.112Z,22.30
2018-02-08T21:45:06.554Z,22.30
2018-02-08T21:47:34.295Z,22.30
2018-02-08T21:50:01.914Z,22.30
2018-02-08T21:52:29.512Z,22.30
2018-02-08T21:54:57.144Z,22.30
2018-02-08T21:57:24.718Z,22.40
2018-02-08T21:59:52.284Z,22.40
2018-02-08T22:02:19.913Z,22.40
2018-02-08T22:04:47.592Z,22.30
2018-02-08T22:07:15.954Z,22.40
2018-02-08T22:09:44.257Z,22.40
2018-02-08T22:12:11.791Z,22.40
2018-02-08T22:14:40.123Z,22.40
2018-02-08T22:17:07.699Z,22.40
2018-02-08T22:19:35.242Z,22.40
2018-02-08T22:22:02.810Z,22.40
2018-02-08T22:24:30.542Z,22.40
2018-02-08T22:26:58.143Z,22.40
2018-02-08T22:29:25.881Z,22.40
2018-02-08T22:31:53.472Z,22.40
2018-02-08T22:34:21.032Z,22.40
2018-02-08T22:36:48.589Z,22.40
2018-02-08T22:39:16.368Z,22.30
2018-02-08T22:41:44.694Z,22.30
2018-02-08T22:44:12.246Z,22.30
2018-02-08T22:46:39.848Z,22.30
2018-02-08T22:49:07.409Z,22.20
2018-02-08T22:51:35.932Z,22.20
2018-02-08T22:54:03.538Z,22.20
2018-02-08T22:56:31.112Z,22.20
2018-02-08T22:58:58.668Z,22.20
2018-02-08T23:01:26.816Z,22.20
2018-02-08T23:03:54.676Z,22.10
2018-02-08T23:06:22.224Z,22.10
2018-02-08T23:08:49.896Z,22.10
2018-02-08T23:11:17.554Z,22.10
2018-02-08T23:13:45.354Z,22.10
2018-02-08T23:16:13.982Z,22.10
2018-02-08T23:18:42.314Z,22.00
2018-02-08T23:21:09.919Z,22.00
2018-02-08T23:23:38.317Z,22.00
2018-02-08T23:26:05.900Z,22.00
2018-02-08T23:28:33.487Z,22.00
2018-02-08T23:31:01.060Z,22.00
2018-02-08T23:33:28.771Z,22.00
2018-02-08T23:35:56.351Z,22.00
2018-02-08T23:38:23.971Z,22.00
2018-02-08T23:40:51.521Z,21.90
2018-02-08T23:43:19.825Z,21.90
2018-02-08T23:45:47.577Z,21.90
2018-02-08T23:48:16.066Z,21.90
2018-02-08T23:50:43.717Z,21.90
2018-02-08T23:53:11.288Z,21.90
2018-02-08T23:55:38.945Z,21.90
2018-02-08T23:58:06.501Z,21.90
